Time;durP1;ratioP1;P1;durP2;ratioP2;P2;SDS_P1;SDS_P2;PMS_P1;PMS_P2;Temp;Humidity;BMP_temperature;BMP_pressure;BME280_temperature;BME280_humidity;BME280_pressure;Samples;Min_cycle;Max_cycle;Signal;HPM_P1;HPM_P2
2023/10/31 00:00:31;;;;;;;5.40;2.17;;;;;;;12.23;91.75;63261.56;6149935;23;20196;-81
2023/10/31 00:02:58;;;;;;;6.13;2.40;;;;;;;12.20;92.94;63256.41;6147992;23;20188;-82
2023/10/31 00:05:25;;;;;;;2.80;2.00;;;;;;;12.17;93.90;63255.88;6144271;23;20429;-81
2023/10/31 00:07:53;;;;;;;3.38;2.25;;;;;;;12.09;94.25;63241.94;6144409;23;20235;-83
2023/10/31 00:10:21;;;;;;;2.38;2.20;;;;;;;12.10;94.53;63248.09;6143939;23;20231;-82
2023/10/31 00:12:48;;;;;;;2.10;2.00;;;;;;;12.09;94.51;63250.13;6146010;23;20218;-83
2023/10/31 00:15:15;;;;;;;3.97;2.90;;;;;;;12.01;95.05;63236.72;6147454;23;20184;-81
2023/10/31 00:17:42;;;;;;;2.33;2.10;;;;;;;11.99;94.73;63236.69;6144624;23;20209;-83
2023/10/31 00:20:10;;;;;;;3.78;2.92;;;;;;;11.96;94.83;63234.09;6143611;23;20178;-82
2023/10/31 00:22:37;;;;;;;4.55;2.65;;;;;;;12.01;95.33;63233.66;6143839;23;20195;-84
2023/10/31 00:25:06;;;;;;;2.17;2.08;;;;;;;11.89;95.65;63226.84;6145070;23;20238;-82
2023/10/31 00:27:33;;;;;;;5.90;3.25;;;;;;;11.87;96.28;63219.16;6145288;23;20242;-83
2023/10/31 00:30:00;;;;;;;5.85;2.75;;;;;;;11.87;96.51;63219.16;6145319;23;20475;-82
2023/10/31 00:32:27;;;;;;;3.65;2.40;;;;;;;11.85;97.63;63224.72;6144232;23;20400;-82
2023/10/31 00:34:55;;;;;;;4.53;3.25;;;;;;;11.86;98.41;63223.22;6143047;23;20178;-84
2023/10/31 00:37:22;;;;;;;3.55;2.83;;;;;;;11.74;99.33;63208.22;6145967;23;20197;-84
2023/10/31 00:39:49;;;;;;;6.30;3.35;;;;;;;11.84;99.19;63221.16;6147549;23;20168;-82
2023/10/31 00:42:18;;;;;;;9.13;3.28;;;;;;;11.85;99.14;63219.63;6144274;23;20201;-82
2023/10/31 00:44:45;;;;;;;3.85;3.05;;;;;;;11.82;99.51;63216.53;6145088;23;20488;-82
2023/10/31 00:47:12;;;;;;;4.53;2.90;;;;;;;11.73;100.00;63204.66;6145677;23;20188;-83
2023/10/31 00:49:39;;;;;;;3.72;2.78;;;;;;;11.92;100.00;63229.44;6143704;23;20171;-84
2023/10/31 00:52:06;;;;;;;3.22;2.58;;;;;;;11.90;100.00;63227.38;6144476;23;20205;-82
2023/10/31 00:54:33;;;;;;;4.13;2.78;;;;;;;11.90;100.00;63225.34;6145569;23;20194;-81
2023/10/31 00:57:00;;;;;;;4.07;2.80;;;;;;;11.88;100.00;63222.72;6145798;23;20223;-83
2023/10/31 00:59:29;;;;;;;2.95;2.67;;;;;;;11.76;100.00;63215.41;6145784;23;20235;-83
2023/10/31 01:01:56;;;;;;;4.78;2.92;;;;;;;11.87;100.00;63222.22;6144108;23;20514;-82
2023/10/31 01:04:24;;;;;;;3.42;2.88;;;;;;;11.91;100.00;63225.84;6146449;23;20175;-82
2023/10/31 01:06:51;;;;;;;3.08;2.53;;;;;;;11.90;100.00;63224.81;6148093;23;20172;-82
2023/10/31 01:09:18;;;;;;;3.20;2.88;;;;;;;11.94;100.00;63231.50;6147246;23;20203;-82
2023/10/31 01:11:45;;;;;;;2.67;2.47;;;;;;;11.86;100.00;63226.28;6144344;23;20191;-83
2023/10/31 01:14:12;;;;;;;3.88;2.55;;;;;;;11.83;100.00;63223.19;6145808;23;20313;-82
2023/10/31 01:16:42;;;;;;;7.47;3.42;;;;;;;11.81;100.00;63218.56;6145632;23;20278;-82
2023/10/31 01:19:09;;;;;;;7.40;3.53;;;;;;;11.69;100.00;63206.13;6145800;23;20270;-82
2023/10/31 01:21:36;;;;;;;4.35;3.05;;;;;;;11.75;100.00;63211.81;6145797;23;20179;-82
2023/10/31 01:24:04;;;;;;;4.30;3.08;;;;;;;11.70;100.00;63206.66;6144184;23;20218;-82
2023/10/31 01:26:31;;;;;;;3.45;3.15;;;;;;;11.67;100.00;63201.50;6142884;23;20168;-84
2023/10/31 01:28:59;;;;;;;6.13;3.42;;;;;;;11.59;100.00;63193.19;6143978;23;20207;-82
2023/10/31 01:31:29;;;;;;;3.97;3.63;;;;;;;11.65;100.00;63204.03;6147328;23;20179;-81
2023/10/31 01:33:58;;;;;;;8.23;4.10;;;;;;;11.56;100.00;63190.59;6145487;23;20218;-83
2023/10/31 01:36:27;;;;;;;7.25;4.07;;;;;;;11.46;100.00;63182.28;6145367;23;20199;-83
2023/10/31 01:38:54;;;;;;;4.32;3.92;;;;;;;11.28;100.00;63163.63;6142827;23;20191;-82
2023/10/31 01:41:24;;;;;;;6.05;4.90;;;;;;;11.37;100.00;63172.97;6144139;23;20176;-81
2023/10/31 01:43:51;;;;;;;6.50;3.78;;;;;;;11.31;100.00;63167.25;6142872;23;20207;-82
2023/10/31 01:46:18;;;;;;;5.95;4.50;;;;;;;11.08;100.00;63143.44;6147509;23;20172;-82
2023/10/31 01:48:45;;;;;;;6.85;4.35;;;;;;;11.21;100.00;63159.47;6144756;23;20239;-82
2023/10/31 01:51:14;;;;;;;5.97;3.92;;;;;;;11.11;100.00;63143.97;6144188;23;20226;-84
2023/10/31 01:53:42;;;;;;;9.10;3.92;;;;;;;11.08;100.00;63140.38;6142280;23;20527;-82
2023/10/31 01:56:09;;;;;;;8.73;4.70;;;;;;;11.05;100.00;63139.81;6143469;23;20242;-81
2023/10/31 01:58:38;;;;;;;5.80;5.28;;;;;;;11.00;100.00;63135.16;6146709;23;20195;-82
2023/10/31 02:01:07;;;;;;;5.25;4.75;;;;;;;10.94;100.00;63130.97;6145837;23;20182;-81
2023/10/31 02:03:34;;;;;;;5.03;3.90;;;;;;;10.92;100.00;63126.34;6144019;23;20210;-82
2023/10/31 02:06:01;;;;;;;6.10;4.38;;;;;;;10.78;100.00;63106.75;6143162;23;20171;-82
2023/10/31 02:08:29;;;;;;;10.27;5.28;;;;;;;10.92;100.00;63123.81;6143083;23;20187;-83
2023/10/31 02:10:56;;;;;;;5.65;4.50;;;;;;;10.89;100.00;63123.25;6145123;23;20171;-82
2023/10/31 02:13:24;;;;;;;7.43;4.65;;;;;;;10.89;100.00;63118.16;6142225;23;20206;-82
2023/10/31 02:15:51;;;;;;;4.40;3.83;;;;;;;10.69;100.00;63105.09;6145985;23;20179;-83
2023/10/31 02:18:18;;;;;;;5.18;4.22;;;;;;;10.68;100.00;63096.41;6146221;23;20226;-81
2023/10/31 02:20:45;;;;;;;5.40;4.30;;;;;;;10.76;100.00;63110.31;6143386;23;20523;-82
2023/10/31 02:23:17;;;;;;;7.88;4.72;;;;;;;10.64;100.00;63097.88;6142042;23;20195;-83
2023/10/31 02:25:44;;;;;;;9.13;4.15;;;;;;;10.76;100.00;63110.31;6145062;23;20156;-82
2023/10/31 02:28:11;;;;;;;5.82;4.28;;;;;;;10.71;100.00;63104.63;6144059;23;20191;-82
2023/10/31 02:30:38;;;;;;;8.27;4.88;;;;;;;10.80;100.00;63111.38;6144479;23;20190;-83
2023/10/31 02:33:05;;;;;;;6.78;4.85;;;;;;;10.77;100.00;63111.34;6145565;23;20207;-83
2023/10/31 02:35:32;;;;;;;6.35;4.78;;;;;;;10.85;100.00;63122.19;6144213;23;20176;-83
2023/10/31 02:37:59;;;;;;;10.55;5.72;;;;;;;10.84;100.00;63118.06;6143707;23;20198;-82
2023/10/31 02:40:28;;;;;;;6.43;5.30;;;;;;;10.76;100.00;63112.84;6143893;23;20340;-83
2023/10/31 02:42:55;;;;;;;9.15;5.43;;;;;;;10.84;100.00;63115.50;6145462;23;20199;-82
2023/10/31 02:45:23;;;;;;;12.88;5.68;;;;;;;10.80;100.00;63106.28;6145721;23;20176;-81
2023/10/31 02:47:50;;;;;;;8.23;6.43;;;;;;;10.94;100.00;63133.53;6144138;23;20191;-81
2023/10/31 02:50:17;;;;;;;8.60;6.22;;;;;;;10.99;100.00;63136.66;6143202;23;20175;-82
2023/10/31 02:52:44;;;;;;;7.47;5.43;;;;;;;10.97;100.00;63129.50;6143447;23;20566;-83
2023/10/31 02:55:12;;;;;;;8.93;6.60;;;;;;;11.01;100.00;63133.63;6145333;23;20175;-82
2023/10/31 02:57:40;;;;;;;12.32;6.60;;;;;;;11.09;100.00;63144.47;6148600;23;20255;-82
2023/10/31 03:00:08;;;;;;;10.43;5.97;;;;;;;11.11;100.00;63146.53;6144806;23;20211;-82
2023/10/31 03:02:36;;;;;;;7.97;5.70;;;;;;;11.20;100.00;63150.25;6145298;23;20214;-82
2023/10/31 03:05:03;;;;;;;6.30;5.65;;;;;;;11.19;100.00;63156.84;6143008;23;20175;-84
2023/10/31 03:07:30;;;;;;;6.70;5.45;;;;;;;11.05;100.00;63140.34;6143963;23;20222;-83
2023/10/31 03:09:57;;;;;;;5.82;4.60;;;;;;;11.17;100.00;63152.22;6144937;23;20171;-84
2023/10/31 03:12:25;;;;;;;7.93;5.90;;;;;;;11.16;100.00;63151.22;6146016;23;20250;-83
2023/10/31 03:14:53;;;;;;;5.32;4.78;;;;;;;11.30;100.00;63163.66;6144751;23;20164;-82
2023/10/31 03:17:20;;;;;;;6.85;5.72;;;;;;;11.21;100.00;63153.84;6142458;23;20200;-83
2023/10/31 03:19:47;;;;;;;6.75;5.80;;;;;;;11.31;100.00;63164.19;6142363;23;20172;-84
2023/10/31 03:22:15;;;;;;;6.72;4.95;;;;;;;11.42;100.00;63178.13;6144549;23;20183;-82
2023/10/31 03:24:42;;;;;;;11.88;5.40;;;;;;;11.37;100.00;63176.00;6143392;23;20178;-81
2023/10/31 03:27:09;;;;;;;7.00;5.68;;;;;;;11.16;100.00;63149.19;6143710;23;20193;-81
2023/10/31 03:29:36;;;;;;;6.97;5.10;;;;;;;11.12;100.00;63145.03;6144377;23;20164;-82
2023/10/31 03:32:06;;;;;;;5.50;5.00;;;;;;;11.18;100.00;63153.28;6145409;23;20231;-81
2023/10/31 03:34:33;;;;;;;10.70;5.90;;;;;;;11.26;100.00;63159.00;6147100;23;20207;-83
2023/10/31 03:37:00;;;;;;;8.07;5.32;;;;;;;11.20;100.00;63150.25;6145183;23;20171;-81
2023/10/31 03:39:27;;;;;;;7.55;4.85;;;;;;;11.10;100.00;63148.06;6145857;23;20176;-82
2023/10/31 03:41:54;;;;;;;7.45;5.20;;;;;;;11.05;100.00;63137.25;6147671;23;20220;-82
2023/10/31 03:44:21;;;;;;;8.13;5.68;;;;;;;11.22;100.00;63155.38;6146778;23;20190;-83
2023/10/31 03:46:49;;;;;;;8.40;4.82;;;;;;;11.20;100.00;63150.75;6144729;23;20235;-81
2023/10/31 03:49:18;;;;;;;7.65;5.80;;;;;;;11.04;100.00;63141.31;6146467;23;20230;-83
2023/10/31 03:51:45;;;;;;;8.60;5.85;;;;;;;11.09;100.00;63141.41;6144269;23;20176;-82
2023/10/31 03:54:12;;;;;;;6.20;5.30;;;;;;;11.01;100.00;63133.63;6146137;23;20206;-81
2023/10/31 03:56:43;;;;;;;6.78;5.22;;;;;;;11.00;100.00;63132.59;6147366;23;20172;-81
2023/10/31 03:59:10;;;;;;;5.57;5.05;;;;;;;11.04;100.00;63138.78;6145790;23;20184;-83
2023/10/31 04:01:37;;;;;;;7.45;5.63;;;;;;;10.86;100.00;63112.50;6146111;23;20200;-82
2023/10/31 04:04:05;;;;;;;10.15;5.50;;;;;;;10.95;100.00;63129.47;6143753;23;20408;-83
2023/10/31 04:06:33;;;;;;;8.63;5.47;;;;;;;10.91;100.00;63120.75;6144402;23;20490;-83
2023/10/31 04:09:01;;;;;;;5.85;5.22;;;;;;;11.01;100.00;63133.13;6144779;23;20211;-81
2023/10/31 04:11:28;;;;;;;5.03;4.65;;;;;;;10.90;100.00;63121.72;6147481;23;20184;-83
2023/10/31 04:13:55;;;;;;;8.50;5.43;;;;;;;10.85;100.00;63117.09;6146493;23;20246;-83
2023/10/31 04:16:23;;;;;;;8.35;6.25;;;;;;;10.76;100.00;63102.16;6146711;23;20167;-82
2023/10/31 04:18:50;;;;;;;11.13;7.15;;;;;;;10.75;100.00;63111.31;6143235;23;20246;-82
2023/10/31 04:21:17;;;;;;;10.23;6.55;;;;;;;10.74;100.00;63105.69;6144447;23;20172;-82
2023/10/31 04:23:46;;;;;;;9.68;6.18;;;;;;;10.65;100.00;63093.81;6145144;23;20191;-83
2023/10/31 04:26:13;;;;;;;9.13;6.57;;;;;;;10.60;100.00;63093.75;6145235;23;20239;-84
2023/10/31 04:28:40;;;;;;;8.38;5.82;;;;;;;10.45;100.00;63076.19;6148303;23;20199;-83
2023/10/31 04:31:07;;;;;;;8.98;6.53;;;;;;;10.51;100.00;63083.91;6145852;23;20178;-83
2023/10/31 04:33:34;;;;;;;10.80;6.30;;;;;;;10.47;100.00;63077.75;6143197;23;20207;-84
2023/10/31 04:36:02;;;;;;;8.80;5.97;;;;;;;10.45;100.00;63076.19;6145074;23;20198;-82
2023/10/31 04:38:29;;;;;;;6.72;5.38;;;;;;;10.42;100.00;63075.13;6146449;23;20213;-81
2023/10/31 04:40:58;;;;;;;6.38;4.90;;;;;;;10.39;100.00;63072.00;6145032;23;20227;-83
2023/10/31 04:43:25;;;;;;;8.93;5.75;;;;;;;10.44;100.00;63077.69;6147385;23;20256;-82
2023/10/31 04:45:52;;;;;;;7.70;5.03;;;;;;;10.39;100.00;63074.53;6144619;23;20175;-83
2023/10/31 04:48:19;;;;;;;8.57;5.40;;;;;;;10.25;100.00;63057.53;6145299;23;20482;-82
2023/10/31 04:50:49;;;;;;;7.80;5.45;;;;;;;10.11;100.00;63040.50;6145389;23;20236;-82
2023/10/31 04:53:16;;;;;;;8.52;5.25;;;;;;;10.11;100.00;63037.94;6145169;23;20231;-82
2023/10/31 04:55:43;;;;;;;7.95;5.75;;;;;;;10.10;100.00;63039.44;6144244;23;20171;-84
2023/10/31 04:58:12;;;;;;;10.93;6.38;;;;;;;10.15;100.00;63042.59;6147105;23;20246;-82
2023/10/31 05:00:40;;;;;;;7.68;5.90;;;;;;;9.85;100.00;63011.56;6144457;23;20468;-81
2023/10/31 05:03:07;;;;;;;6.97;6.20;;;;;;;9.79;100.00;63007.88;6143715;23;20203;-83
2023/10/31 05:05:34;;;;;;;8.20;6.25;;;;;;;9.88;100.00;63016.69;6145277;23;20196;-82
2023/10/31 05:08:01;;;;;;;8.02;6.70;;;;;;;9.92;100.00;63023.38;6140402;23;20214;-82
2023/10/31 05:10:28;;;;;;;8.77;6.00;;;;;;;9.88;100.00;63017.19;6142387;23;20231;-82
2023/10/31 05:12:56;;;;;;;8.05;6.30;;;;;;;9.90;100.00;63021.81;6145454;23;20202;-82
2023/10/31 05:15:25;;;;;;;7.38;6.47;;;;;;;9.91;100.00;63015.22;6150327;23;20160;-84
2023/10/31 05:17:53;;;;;;;12.10;6.07;;;;;;;9.89;100.00;63018.22;6149210;23;20200;-82
2023/10/31 05:20:20;;;;;;;9.50;6.60;;;;;;;9.75;100.00;63005.78;6145472;23;20192;-83
2023/10/31 05:22:47;;;;;;;6.18;5.63;;;;;;;9.98;100.00;63021.94;6144097;23;20243;-82
2023/10/31 05:25:15;;;;;;;7.78;5.38;;;;;;;9.97;100.00;63026.50;6145338;23;20175;-83
2023/10/31 05:27:42;;;;;;;4.78;4.28;;;;;;;9.76;100.00;63001.72;6144171;23;20202;-85
2023/10/31 05:30:10;;;;;;;5.30;4.82;;;;;;;10.03;100.00;63029.66;6144673;23;20195;-85
2023/10/31 05:32:39;;;;;;;8.10;4.82;;;;;;;9.92;100.00;63023.88;6151231;23;20207;-84
2023/10/31 05:35:07;;;;;;;6.38;5.55;;;;;;;10.13;100.00;63040.53;6148661;23;20208;-83
2023/10/31 05:37:34;;;;;;;8.02;5.25;;;;;;;10.19;100.00;63046.22;6144693;23;20191;-85
2023/10/31 05:40:01;;;;;;;6.70;5.57;;;;;;;10.20;100.00;63052.88;6144547;23;20164;-82
2023/10/31 05:42:29;;;;;;;5.55;5.05;;;;;;;10.38;100.00;63068.44;6144830;23;20195;-82
2023/10/31 05:44:56;;;;;;;6.90;5.60;;;;;;;10.56;100.00;63081.44;6144534;23;20179;-83
2023/10/31 05:47:24;;;;;;;6.90;5.85;;;;;;;10.63;100.00;63094.28;6148740;23;20215;-82
2023/10/31 05:49:52;;;;;;;6.72;6.00;;;;;;;10.69;100.00;63105.09;6150895;23;20171;-82
2023/10/31 05:52:20;;;;;;;5.70;5.20;;;;;;;10.72;100.00;63103.63;6145926;23;20196;-84
2023/10/31 05:54:47;;;;;;;6.55;5.32;;;;;;;10.64;100.00;63095.34;6143849;23;20214;-82
2023/10/31 05:57:15;;;;;;;8.63;5.50;;;;;;;11.06;100.00;63138.31;6145333;23;20229;-83
2023/10/31 05:59:42;;;;;;;5.25;4.85;;;;;;;11.04;100.00;63136.22;6142746;23;20223;-83
2023/10/31 06:02:10;;;;;;;7.43;5.22;;;;;;;10.98;100.00;63132.56;6146653;23;20183;-83
2023/10/31 06:04:36;;;;;;;7.10;5.53;;;;;;;10.59;100.00;63089.66;6149445;23;20183;-83
2023/10/31 06:07:06;;;;;;;7.25;6.20;;;;;;;10.56;100.00;63084.00;6144550;23;20223;-81
2023/10/31 06:09:34;;;;;;;11.23;7.50;;;;;;;10.64;100.00;63092.28;6144207;23;20175;-83
2023/10/31 06:12:01;;;;;;;14.13;7.63;;;;;;;10.63;100.00;63093.78;6143990;23;20209;-83
2023/10/31 06:14:28;;;;;;;18.70;8.07;;;;;;;10.89;100.00;63123.25;6145030;23;20238;-83
2023/10/31 06:16:59;;;;;;;8.60;7.57;;;;;;;11.15;100.00;63145.59;6146425;23;20243;-81
2023/10/31 06:19:26;;;;;;;19.75;8.57;;;;;;;11.26;100.00;63159.53;6150972;23;20472;-83
2023/10/31 06:21:56;;;;;;;15.88;8.45;;;;;;;11.30;100.00;63163.66;6143821;23;20195;-82
2023/10/31 06:24:26;;;;;;;15.60;8.75;;;;;;;11.31;100.00;63159.63;6144761;23;20179;-82
2023/10/31 06:26:53;;;;;;;18.67;8.35;;;;;;;11.20;100.00;63153.31;6144791;23;20170;-83
2023/10/31 06:29:20;;;;;;;17.67;9.70;;;;;;;11.17;100.00;63147.13;6145664;23;20222;-82
2023/10/31 06:31:47;;;;;;;22.40;14.90;;;;;;;10.90;100.00;63116.63;6149853;23;20178;-82
2023/10/31 06:34:14;;;;;;;36.15;25.38;;;;;;;10.66;100.00;63099.44;6148503;23;20199;-82
2023/10/31 06:36:41;;;;;;;19.08;12.02;;;;;;;10.62;100.00;63092.75;6144078;23;20171;-81
2023/10/31 06:39:10;;;;;;;17.80;10.43;;;;;;;10.38;100.00;63065.88;6144820;23;20191;-82
2023/10/31 06:41:39;;;;;;;16.05;9.48;;;;;;;10.36;100.00;63066.88;6143155;23;20437;-82
2023/10/31 06:44:06;;;;;;;17.20;10.27;;;;;;;10.48;100.00;63081.84;6142384;23;20190;-81
2023/10/31 06:46:33;;;;;;;12.60;10.27;;;;;;;10.49;100.00;63079.81;6150090;23;20182;-80
2023/10/31 06:49:00;;;;;;;16.92;10.10;;;;;;;10.67;100.00;63097.91;6147472;23;20187;-82
2023/10/31 06:51:27;;;;;;;15.15;10.13;;;;;;;10.83;100.00;63114.47;6143607;23;20186;-82
2023/10/31 06:53:54;;;;;;;13.93;8.80;;;;;;;10.92;100.00;63121.25;6143105;23;20211;-83
2023/10/31 06:56:22;;;;;;;11.68;9.50;;;;;;;11.11;100.00;63143.97;6144239;23;20167;-82
2023/10/31 06:58:50;;;;;;;15.10;9.98;;;;;;;11.25;100.00;63155.44;6144388;23;20196;-83
2023/10/31 07:01:19;;;;;;;14.00;10.77;;;;;;;11.36;100.00;63172.44;6149057;23;20175;-82
2023/10/31 07:03:46;;;;;;;20.48;11.85;;;;;;;11.44;100.00;63182.75;6145983;23;20196;-81
2023/10/31 07:06:13;;;;;;;20.15;12.02;;;;;;;11.60;100.00;63194.75;6142244;23;20178;-80
2023/10/31 07:08:40;;;;;;;14.43;12.25;;;;;;;11.75;100.00;63209.81;6145390;23;20222;-80
2023/10/31 07:11:08;;;;;;;15.80;11.63;;;;;;;11.79;100.00;63213.41;6143759;23;20291;-81
2023/10/31 07:13:35;;;;;;;14.75;10.77;;;;;;;11.88;100.00;63225.81;6146508;23;20199;-81
2023/10/31 07:16:04;;;;;;;14.73;11.07;;;;;;;11.97;100.00;63226.97;6146562;23;20171;-80
2023/10/31 07:18:31;;;;;;;19.25;9.88;;;;;;;11.98;100.00;63233.63;6148094;23;20203;-82
2023/10/31 07:20:58;;;;;;;17.85;10.20;;;;;;;12.18;100.00;63256.91;6145607;23;20186;-82
2023/10/31 07:23:26;;;;;;;23.98;10.00;;;;;;;12.38;100.00;63274.56;6143726;23;20191;-82
2023/10/31 07:25:53;;;;;;;21.77;11.52;;;;;;;12.32;100.00;63265.78;6144387;23;20432;-80
2023/10/31 07:28:20;;;;;;;14.65;10.48;;;;;;;12.46;100.00;63285.41;6144908;23;20371;-82
2023/10/31 07:30:50;;;;;;;13.57;11.02;;;;;;;12.66;100.00;63306.69;6146165;23;20172;-81
2023/10/31 07:33:18;;;;;;;20.88;11.68;;;;;;;12.80;100.00;63321.19;6150056;23;20568;-81
2023/10/31 07:35:46;;;;;;;16.90;10.93;;;;;;;12.89;100.00;63330.00;6145358;23;20206;-82
2023/10/31 07:38:13;;;;;;;12.55;10.70;;;;;;;12.91;100.00;63329.00;6142832;23;20207;-81
2023/10/31 07:40:40;;;;;;;16.20;10.80;;;;;;;12.88;100.00;63323.31;6143677;23;20411;-82
2023/10/31 07:43:07;;;;;;;21.83;11.77;;;;;;;12.93;100.00;63331.59;6146307;23;20195;-82
2023/10/31 07:45:35;;;;;;;21.02;11.50;;;;;;;13.09;100.00;63350.78;6148777;23;20176;-81
2023/10/31 07:48:02;;;;;;;18.15;11.13;;;;;;;13.23;100.00;63362.22;6146510;23;20220;-83
2023/10/31 07:50:32;;;;;;;14.05;10.20;;;;;;;13.20;100.00;63359.09;6144627;23;20190;-81
2023/10/31 07:53:00;;;;;;;16.55;10.43;;;;;;;13.30;100.00;63369.47;6145838;23;20361;-82
2023/10/31 07:55:27;;;;;;;15.63;11.27;;;;;;;13.45;100.00;63385.03;6144848;23;20565;-82
2023/10/31 07:57:54;;;;;;;16.38;10.55;;;;;;;13.66;100.00;63409.38;6145898;23;20195;-82
2023/10/31 08:00:22;;;;;;;18.50;10.13;;;;;;;13.80;100.00;63423.94;6150559;23;20163;-82
2023/10/31 08:02:49;;;;;;;16.17;11.25;;;;;;;13.97;100.00;63439.00;6146435;23;20213;-82
2023/10/31 08:05:16;;;;;;;19.52;10.75;;;;;;;14.06;100.00;63443.25;6144045;23;20171;-82
2023/10/31 08:07:44;;;;;;;14.93;10.07;;;;;;;13.88;100.00;63432.75;6144805;23;20234;-83
2023/10/31 08:10:11;;;;;;;19.00;11.63;;;;;;;14.29;100.00;63472.25;6144250;23;20175;-82
2023/10/31 08:12:39;;;;;;;18.45;10.30;;;;;;;14.45;99.96;63488.88;6143785;23;20218;-81
2023/10/31 08:15:06;;;;;;;14.95;9.93;;;;;;;14.52;98.69;63496.13;6143532;23;20423;-82
2023/10/31 08:17:49;;;;;;;18.20;10.02;;;;;;;14.40;98.43;63488.81;6146812;23;20215;-84
2023/10/31 08:20:17;;;;;;;13.77;9.85;;;;;;;14.30;97.73;63475.84;6146924;23;20187;-81
2023/10/31 08:22:46;;;;;;;13.07;10.40;;;;;;;14.56;97.65;63497.75;6142936;23;20195;-81
2023/10/31 08:25:14;;;;;;;18.63;9.90;;;;;;;14.81;97.00;63528.81;6144033;23;20177;-83
2023/10/31 08:27:41;;;;;;;19.05;10.80;;;;;;;14.82;94.45;63526.78;6144235;23;20270;-80
2023/10/31 08:30:09;;;;;;;16.30;10.32;;;;;;;14.90;92.15;63540.75;6143054;23;20230;-82
2023/10/31 08:32:37;;;;;;;12.35;9.15;;;;;;;15.20;92.93;63566.28;6144127;23;20202;-82
2023/10/31 08:35:04;;;;;;;13.10;8.32;;;;;;;15.32;89.19;63581.31;6144092;23;20203;-83
2023/10/31 08:37:31;;;;;;;13.88;8.20;;;;;;;15.44;89.11;63583.00;6145228;23;20219;-80
2023/10/31 08:40:03;;;;;;;16.80;8.55;;;;;;;15.66;87.08;63616.66;6145164;23;20191;-81
2023/10/31 08:42:30;;;;;;;15.07;8.88;;;;;;;15.87;86.14;63637.97;6145499;23;20198;-81
2023/10/31 08:44:58;;;;;;;16.23;7.90;;;;;;;15.98;83.19;63644.25;6143396;23;20178;-83
2023/10/31 08:47:25;;;;;;;13.70;7.45;;;;;;;16.25;80.85;63674.94;6144978;23;20190;-82
2023/10/31 08:49:52;;;;;;;8.77;7.85;;;;;;;16.13;77.13;63665.00;6142051;23;20230;-82
2023/10/31 08:52:19;;;;;;;13.27;7.55;;;;;;;16.29;76.92;63681.66;6143571;23;20386;-82
2023/10/31 08:54:46;;;;;;;15.85;6.47;;;;;;;16.42;77.78;63689.50;6142415;23;20328;-82
2023/10/31 08:57:15;;;;;;;10.68;6.25;;;;;;;16.61;76.80;63714.97;6143346;23;20175;-84
2023/10/31 08:59:42;;;;;;;12.68;5.88;;;;;;;16.67;72.82;63718.63;6145223;23;20219;-83
2023/10/31 09:02:10;;;;;;;9.48;5.93;;;;;;;16.90;72.17;63745.13;6142863;23;20175;-83
2023/10/31 09:04:38;;;;;;;8.88;5.03;;;;;;;17.05;66.97;63758.19;6143529;23;20177;-82
2023/10/31 09:07:05;;;;;;;8.90;4.78;;;;;;;17.22;65.75;63772.78;6145472;23;20163;-82
2023/10/31 09:09:32;;;;;;;6.15;4.03;;;;;;;17.24;60.71;63780.00;6144799;23;20171;-80
2023/10/31 09:11:59;;;;;;;8.82;3.88;;;;;;;17.41;61.42;63802.34;6142161;23;20224;-83
2023/10/31 09:14:29;;;;;;;7.68;3.55;;;;;;;17.41;55.25;63797.19;6144944;23;20589;-82
2023/10/31 09:16:56;;;;;;;5.70;2.83;;;;;;;17.39;52.92;63795.09;6141183;23;20175;-81
2023/10/31 09:19:23;;;;;;;2.38;2.28;;;;;;;17.67;54.16;63826.84;6143492;23;20174;-84
2023/10/31 09:21:50;;;;;;;3.70;2.88;;;;;;;17.88;52.95;63846.13;6146002;23;20177;-81
2023/10/31 09:24:17;;;;;;;3.67;3.03;;;;;;;17.89;53.25;63844.63;6141487;23;20216;-83
2023/10/31 09:26:45;;;;;;;4.43;3.22;;;;;;;18.09;52.82;63868.53;6145547;23;20182;-83
2023/10/31 09:29:13;;;;;;;4.53;3.03;;;;;;;18.26;54.05;63883.16;6144219;23;20199;-82
2023/10/31 09:31:41;;;;;;;5.95;4.05;;;;;;;18.35;53.87;63895.09;6141855;23;20234;-85
2023/10/31 09:34:09;;;;;;;5.03;2.70;;;;;;;18.56;54.61;63919.59;6144210;23;20250;-83
2023/10/31 09:36:36;;;;;;;7.05;4.10;;;;;;;18.52;52.69;63917.50;6144008;23;20178;-83
2023/10/31 09:39:04;;;;;;;4.13;2.45;;;;;;;18.63;53.40;63921.72;6143474;23;20195;-82
2023/10/31 09:41:32;;;;;;;8.93;3.25;;;;;;;18.69;51.63;63927.47;6144560;23;20167;-82
2023/10/31 09:43:58;;;;;;;6.32;2.97;;;;;;;18.64;50.27;63922.25;6143270;23;20234;-83
2023/10/31 09:46:25;;;;;;;3.38;3.08;;;;;;;18.61;51.50;63919.66;6144333;23;20175;-83
2023/10/31 09:48:56;;;;;;;8.10;2.78;;;;;;;18.67;50.25;63925.91;6142781;23;20251;-81
2023/10/31 09:51:27;;;;;;;6.78;2.90;;;;;;;18.92;50.33;63954.00;6144643;23;20174;-82
2023/10/31 09:53:57;;;;;;;8.68;2.92;;;;;;;19.08;47.43;63968.63;6145075;23;20198;-83
2023/10/31 09:56:24;;;;;;;6.32;2.10;;;;;;;19.13;47.06;63975.91;6143110;23;20557;-84
2023/10/31 09:58:54;;;;;;;3.78;3.20;;;;;;;18.93;46.89;63955.56;6143115;23;20251;-84
2023/10/31 10:01:21;;;;;;;5.10;2.15;;;;;;;19.04;46.62;63966.50;6142307;23;20194;-82
2023/10/31 10:03:49;;;;;;;6.28;2.22;;;;;;;19.07;47.23;63967.06;6141657;23;20195;-82
2023/10/31 10:06:21;;;;;;;6.45;2.80;;;;;;;19.18;46.82;63981.66;6146484;23;20185;-81
2023/10/31 10:08:48;;;;;;;7.90;2.78;;;;;;;19.09;46.79;63969.69;6143026;23;20195;-81
2023/10/31 10:11:16;;;;;;;2.92;2.58;;;;;;;19.23;46.51;63983.75;6142930;23;20187;-82
2023/10/31 10:13:43;;;;;;;4.03;2.42;;;;;;;19.20;46.45;63983.72;6143060;23;20210;-82
2023/10/31 10:16:11;;;;;;;6.57;2.45;;;;;;;19.43;45.92;64007.22;6141320;23;20202;-83
2023/10/31 10:18:39;;;;;;;2.72;2.58;;;;;;;19.44;45.05;64008.78;6140183;23;20199;-82
2023/10/31 10:21:08;;;;;;;9.82;4.63;;;;;;;19.33;43.34;63996.78;6144205;23;20195;-82
2023/10/31 10:23:36;;;;;;;3.42;1.92;;;;;;;19.63;42.92;64025.47;6146577;23;20194;-79
2023/10/31 10:26:04;;;;;;;1.95;1.77;;;;;;;19.72;41.74;64034.34;6143597;23;20479;-84
2023/10/31 10:28:33;;;;;;;2.30;2.08;;;;;;;19.64;41.52;64031.19;6144609;23;20198;-81
2023/10/31 10:31:00;;;;;;;2.17;2.00;;;;;;;19.64;43.02;64031.69;6141326;23;20171;-81
2023/10/31 10:33:27;;;;;;;4.72;2.38;;;;;;;19.87;43.49;64050.50;6144025;23;20202;-83
2023/10/31 10:35:56;;;;;;;3.90;2.47;;;;;;;20.15;43.54;64084.91;6145604;23;20282;-83
2023/10/31 10:38:25;;;;;;;2.25;2.15;;;;;;;20.47;42.08;64113.13;6147822;23;20190;-83
2023/10/31 10:40:57;;;;;;;2.45;2.10;;;;;;;20.74;41.57;64148.56;6144951;23;20424;-80
2023/10/31 10:43:25;;;;;;;4.80;2.05;;;;;;;20.71;41.89;64137.66;6142724;23;20358;-81
2023/10/31 10:46:00;;;;;;;4.10;2.45;;;;;;;20.63;41.57;64131.91;6140647;23;20198;-82
2023/10/31 10:48:28;;;;;;;3.55;3.25;;;;;;;20.74;42.19;64145.47;6142758;23;20190;-81
2023/10/31 10:51:05;;;;;;;4.88;2.28;;;;;;;20.92;40.17;64159.59;6143044;23;20166;-81
2023/10/31 10:53:42;;;;;;;3.72;2.53;;;;;;;21.07;41.00;64177.84;6147075;23;20218;-81
2023/10/31 10:56:17;;;;;;;3.33;2.55;;;;;;;21.21;41.83;64192.47;6143434;23;20198;-83
2023/10/31 10:58:53;;;;;;;2.50;2.35;;;;;;;21.42;41.14;64211.81;6142524;23;20386;-82
2023/10/31 11:01:21;;;;;;;5.25;2.92;;;;;;;21.53;40.96;64225.38;6142681;23;20170;-84
2023/10/31 11:03:48;;;;;;;5.93;2.53;;;;;;;21.56;40.15;64225.91;6141215;23;20254;-82
2023/10/31 11:06:16;;;;;;;4.15;2.58;;;;;;;21.78;40.20;64252.03;6145607;23;20181;-81
2023/10/31 11:08:44;;;;;;;3.55;2.70;;;;;;;21.61;39.13;64239.44;6145828;23;20214;-82
2023/10/31 11:11:15;;;;;;;10.10;7.13;;;;;;;21.48;40.19;64222.75;6143177;23;20489;-84
2023/10/31 11:13:44;;;;;;;5.68;2.55;;;;;;;21.54;39.18;64221.25;6142174;23;20209;-83
2023/10/31 11:16:28;;;;;;;3.65;2.42;;;;;;;21.07;40.00;64177.84;6139114;23;20203;-83
2023/10/31 11:18:57;;;;;;;4.88;2.70;;;;;;;21.15;40.34;64191.41;6144426;23;20412;-83
2023/10/31 11:21:24;;;;;;;3.17;2.88;;;;;;;21.33;40.36;64204.50;6144989;23;20235;-80
2023/10/31 11:23:59;;;;;;;3.53;2.97;;;;;;;21.37;39.62;64209.19;6143500;23;20226;-81
2023/10/31 11:26:29;;;;;;;5.53;3.20;;;;;;;21.37;39.04;64209.19;6141501;23;20364;-82